Time;durP1;ratioP1;P1;durP2;ratioP2;P2;SDS_P1;SDS_P2;PMS_P1;PMS_P2;Temp;Humidity;BMP_temperature;BMP_pressure;BME280_temperature;BME280_humidity;BME280_pressure;Samples;Min_cycle;Max_cycle;Signal;HPM_P1;HPM_P2
2023/10/27 00:00:22;;;;;;;40.85;18.90;;;7.90;99.90;;;;;;4991138;28;20058;-58
2023/10/27 00:02:50;;;;;;;40.83;18.23;;;8.00;99.90;;;;;;4989925;28;20474;-58
2023/10/27 00:05:17;;;;;;;40.78;19.75;;;8.00;99.90;;;;;;4990673;28;20161;-58
2023/10/27 00:07:45;;;;;;;41.95;19.08;;;8.00;99.90;;;;;;4990468;28;20066;-58
2023/10/27 00:10:13;;;;;;;43.58;19.63;;;8.00;99.90;;;;;;4990710;28;20062;-59
2023/10/27 00:12:41;;;;;;;38.65;18.50;;;8.10;99.90;;;;;;4981017;28;20502;-58
2023/10/27 00:15:09;;;;;;;43.72;19.75;;;8.10;99.90;;;;;;4990274;28;20515;-57
2023/10/27 00:17:36;;;;;;;41.38;18.63;;;8.10;99.90;;;;;;4981667;28;20042;-57
2023/10/27 00:20:05;;;;;;;42.25;18.92;;;8.10;99.90;;;;;;4989478;28;20038;-58
2023/10/27 00:22:33;;;;;;;39.95;18.75;;;8.20;99.90;;;;;;4990208;28;20042;-57
2023/10/27 00:25:01;;;;;;;39.47;17.88;;;8.10;99.90;;;;;;4989091;28;20053;-58
2023/10/27 00:27:29;;;;;;;34.60;17.40;;;8.20;99.90;;;;;;4980705;28;20035;-58
2023/10/27 00:29:56;;;;;;;41.72;18.55;;;8.20;99.90;;;;;;4989499;28;20057;-58
2023/10/27 00:32:24;;;;;;;41.05;18.40;;;8.20;99.90;;;;;;4989311;28;20053;-59
2023/10/27 00:34:54;;;;;;;36.00;17.27;;;8.20;99.90;;;;;;4988784;28;20051;-58
2023/10/27 00:37:22;;;;;;;36.17;17.65;;;8.20;99.90;;;;;;4973128;28;20053;-58
2023/10/27 00:39:50;;;;;;;33.17;17.52;;;8.20;99.90;;;;;;4988569;28;20142;-58
2023/10/27 00:42:17;;;;;;;32.15;16.77;;;8.20;99.90;;;;;;4988371;28;20560;-57
2023/10/27 00:44:45;;;;;;;33.25;17.00;;;8.20;99.90;;;;;;4989514;28;20042;-58
2023/10/27 00:47:13;;;;;;;34.50;17.23;;;8.20;99.90;;;;;;4986612;28;20054;-58
2023/10/27 00:49:42;;;;;;;34.22;17.00;;;8.20;99.90;;;;;;4984821;28;20054;-59
2023/10/27 00:52:12;;;;;;;31.65;16.70;;;8.20;99.90;;;;;;4970758;28;20047;-58
2023/10/27 00:54:41;;;;;;;;;;;8.20;99.90;;;;;;4985727;28;20069;-58
2023/10/27 00:57:09;;;;;;;34.67;16.38;;;8.10;99.90;;;;;;4986604;28;19926;-59
2023/10/27 00:59:37;;;;;;;36.03;16.52;;;8.10;99.90;;;;;;4986938;28;20489;-58
2023/10/27 01:02:05;;;;;;;29.40;16.05;;;8.20;99.90;;;;;;4986559;28;20510;-58
2023/10/27 01:04:32;;;;;;;33.72;16.45;;;8.20;99.90;;;;;;4986200;28;20486;-57
2023/10/27 01:07:00;;;;;;;34.40;16.27;;;8.20;99.90;;;;;;4986064;28;20069;-58
2023/10/27 01:09:28;;;;;;;32.40;17.65;;;8.20;99.90;;;;;;4988390;28;20064;-58
2023/10/27 01:11:57;;;;;;;40.97;17.08;;;8.20;99.90;;;;;;4988269;28;20058;-59
2023/10/27 01:14:27;;;;;;;35.53;17.05;;;8.20;99.90;;;;;;4982680;28;20050;-58
2023/10/27 01:16:56;;;;;;;33.67;16.90;;;8.20;99.90;;;;;;4987292;28;20394;-58
2023/10/27 01:19:24;;;;;;;41.00;17.02;;;8.20;99.90;;;;;;4983330;28;20046;-58
2023/10/27 01:21:52;;;;;;;31.20;16.65;;;8.20;99.90;;;;;;4987659;28;20057;-57
2023/10/27 01:24:22;;;;;;;32.72;15.52;;;8.20;99.90;;;;;;4988254;28;20046;-58
2023/10/27 01:26:50;;;;;;;37.70;17.80;;;8.20;99.90;;;;;;4968905;28;20060;-58
2023/10/27 01:29:17;;;;;;;40.42;18.33;;;8.30;99.90;;;;;;4983633;28;20434;-57
2023/10/27 01:31:45;;;;;;;31.98;16.75;;;8.20;99.90;;;;;;4975563;28;20046;-57
2023/10/27 01:34:13;;;;;;;39.15;17.70;;;8.20;99.90;;;;;;4988097;28;20058;-56
2023/10/27 01:36:40;;;;;;;38.90;17.60;;;8.30;99.90;;;;;;4991253;28;20062;-57
2023/10/27 01:39:08;;;;;;;40.95;17.13;;;8.30;99.90;;;;;;4992029;28;20046;-57
2023/10/27 01:41:36;;;;;;;40.05;18.35;;;8.20;99.90;;;;;;4991171;28;20435;-57
2023/10/27 01:44:04;;;;;;;38.40;18.00;;;8.20;99.90;;;;;;4992235;28;20418;-57
2023/10/27 01:46:31;;;;;;;35.33;16.48;;;8.20;99.90;;;;;;4978944;28;20492;-58
2023/10/27 01:48:59;;;;;;;30.60;15.80;;;8.20;99.90;;;;;;4987168;28;20471;-57
2023/10/27 01:51:27;;;;;;;42.05;17.58;;;8.20;99.90;;;;;;4990731;28;20065;-58
2023/10/27 01:53:54;;;;;;;44.22;18.30;;;8.20;99.90;;;;;;4990730;28;20039;-57
2023/10/27 01:56:22;;;;;;;45.65;17.75;;;8.20;99.90;;;;;;4988849;28;20406;-58
2023/10/27 01:58:49;;;;;;;49.17;18.75;;;8.20;99.90;;;;;;4990344;28;20042;-58
2023/10/27 02:01:18;;;;;;;43.35;17.73;;;8.20;99.90;;;;;;4989880;28;20046;-57
2023/10/27 02:03:46;;;;;;;37.28;17.60;;;8.20;99.90;;;;;;4990803;28;20402;-57
2023/10/27 02:06:13;;;;;;;50.80;17.85;;;8.20;99.90;;;;;;4990712;28;20426;-58
2023/10/27 02:08:41;;;;;;;36.63;16.52;;;8.30;99.90;;;;;;4974663;28;20046;-58
2023/10/27 02:11:09;;;;;;;40.05;16.48;;;8.20;99.90;;;;;;4973797;28;20507;-59
2023/10/27 02:13:36;;;;;;;52.88;17.98;;;8.20;99.90;;;;;;4991632;28;20046;-59
2023/10/27 02:16:04;;;;;;;54.17;17.83;;;8.30;99.90;;;;;;4992074;28;20058;-58
2023/10/27 02:18:32;;;;;;;55.80;17.98;;;8.20;99.90;;;;;;4991474;28;20505;-57
2023/10/27 02:21:00;;;;;;;46.80;17.65;;;8.20;99.90;;;;;;4990915;28;20054;-57
2023/10/27 02:23:27;;;;;;;40.70;16.38;;;8.30;99.90;;;;;;4990550;28;20047;-58
2023/10/27 02:25:57;;;;;;;33.17;15.50;;;8.20;99.90;;;;;;4973729;28;20046;-58
2023/10/27 02:28:25;;;;;;;34.00;15.80;;;8.20;99.90;;;;;;4957705;28;20051;-58
2023/10/27 02:30:53;;;;;;;31.42;15.55;;;8.20;99.90;;;;;;4971210;28;20069;-59
2023/10/27 02:33:20;;;;;;;38.30;15.98;;;8.20;99.90;;;;;;4975312;28;20045;-59
2023/10/27 02:35:48;;;;;;;37.78;15.52;;;8.20;99.90;;;;;;4991760;28;20042;-58
2023/10/27 02:38:16;;;;;;;36.05;16.38;;;8.20;99.90;;;;;;4991552;28;20061;-57
2023/10/27 02:40:43;;;;;;;33.17;16.30;;;8.20;99.90;;;;;;4979448;28;20509;-59
2023/10/27 02:43:11;;;;;;;35.80;15.27;;;8.10;99.90;;;;;;4991429;28;20038;-58
2023/10/27 02:45:39;;;;;;;32.58;16.20;;;8.10;99.90;;;;;;4990702;28;20083;-59
2023/10/27 02:48:08;;;;;;;34.42;15.05;;;8.10;99.90;;;;;;4991569;28;20042;-58
2023/10/27 02:50:35;;;;;;;35.72;15.85;;;8.10;99.90;;;;;;4990297;28;20479;-58
2023/10/27 02:53:04;;;;;;;33.97;15.10;;;8.10;99.90;;;;;;4990332;28;20046;-58
2023/10/27 02:55:34;;;;;;;33.42;15.27;;;8.10;99.90;;;;;;4991445;28;20053;-58
2023/10/27 02:58:03;;;;;;;45.35;18.17;;;8.10;99.90;;;;;;4991631;28;20050;-58
2023/10/27 03:00:31;;;;;;;53.88;17.60;;;8.20;99.90;;;;;;4991473;28;20057;-58
2023/10/27 03:02:58;;;;;;;43.65;17.17;;;8.20;99.90;;;;;;4991437;28;20525;-58
2023/10/27 03:05:26;;;;;;;42.40;17.30;;;8.30;99.90;;;;;;4991504;28;20055;-59
2023/10/27 03:07:54;;;;;;;41.92;16.25;;;8.30;99.90;;;;;;4990082;28;20055;-59
2023/10/27 03:10:23;;;;;;;39.13;16.75;;;8.40;99.90;;;;;;4990134;28;20046;-59
2023/10/27 03:12:51;;;;;;;36.90;15.40;;;8.40;99.90;;;;;;4992635;28;20057;-59
2023/10/27 03:15:19;;;;;;;49.55;16.42;;;8.50;99.90;;;;;;4993696;28;20035;-59
2023/10/27 03:17:48;;;;;;;62.67;18.55;;;8.50;99.90;;;;;;4994903;28;20070;-58
2023/10/27 03:20:16;;;;;;;58.25;18.15;;;8.60;99.90;;;;;;4994308;28;20042;-58
2023/10/27 03:22:44;;;;;;;65.78;19.35;;;8.60;99.90;;;;;;4994997;28;20046;-59
2023/10/27 03:25:13;;;;;;;53.00;17.73;;;8.70;99.90;;;;;;4993588;28;20054;-59
2023/10/27 03:27:42;;;;;;;77.93;20.25;;;8.70;99.90;;;;;;4994875;28;20045;-58
2023/10/27 03:30:10;;;;;;;97.30;21.48;;;8.80;99.90;;;;;;4994772;28;20042;-57
2023/10/27 03:32:38;;;;;;;89.32;20.75;;;8.80;99.90;;;;;;4994682;28;20055;-57
2023/10/27 03:35:07;;;;;;;89.25;20.60;;;8.80;99.90;;;;;;4994782;28;20065;-57
2023/10/27 03:37:34;;;;;;;117.20;21.58;;;8.90;99.90;;;;;;4994793;28;20047;-57
2023/10/27 03:40:04;;;;;;;96.40;21.90;;;8.90;99.90;;;;;;4993910;28;20046;-57
2023/10/27 03:42:32;;;;;;;88.70;20.10;;;9.00;99.90;;;;;;4994525;28;20046;-57
2023/10/27 03:45:01;;;;;;;99.35;20.77;;;9.00;99.90;;;;;;4994539;28;20515;-57
2023/10/27 03:47:28;;;;;;;121.18;21.92;;;9.00;99.90;;;;;;4994440;28;20068;-57
2023/10/27 03:49:56;;;;;;;157.15;22.83;;;9.00;99.90;;;;;;4988357;28;20059;-58
2023/10/27 03:52:24;;;;;;;126.10;20.77;;;9.00;99.90;;;;;;4975874;28;20058;-57
2023/10/27 03:54:51;;;;;;;130.85;20.25;;;9.10;99.90;;;;;;4986711;28;20038;-57
2023/10/27 03:57:19;;;;;;;124.47;21.23;;;9.10;99.90;;;;;;4994245;28;20414;-57
2023/10/27 03:59:47;;;;;;;140.13;21.77;;;9.10;99.90;;;;;;4994205;28;20042;-57
2023/10/27 04:02:15;;;;;;;122.75;20.52;;;9.10;99.90;;;;;;4994238;28;20051;-57
2023/10/27 04:04:43;;;;;;;153.38;22.10;;;9.10;99.90;;;;;;4994183;28;20050;-57
2023/10/27 04:07:11;;;;;;;178.23;22.13;;;9.10;99.90;;;;;;4994233;28;20057;-57
2023/10/27 04:09:39;;;;;;;168.63;20.95;;;9.10;99.90;;;;;;4994088;28;20055;-57
2023/10/27 04:12:07;;;;;;;150.95;20.02;;;9.10;99.90;;;;;;4993865;28;20050;-57
2023/10/27 04:14:34;;;;;;;151.75;20.75;;;9.10;99.90;;;;;;4993936;28;20042;-57
2023/10/27 04:17:02;;;;;;;124.32;18.77;;;9.10;99.90;;;;;;4993919;28;20053;-58
2023/10/27 04:19:30;;;;;;;160.32;20.13;;;9.10;99.90;;;;;;4993949;28;20050;-59
2023/10/27 04:21:58;;;;;;;216.43;21.90;;;9.10;99.90;;;;;;4991870;28;20042;-58
2023/10/27 04:24:26;;;;;;;198.43;22.08;;;9.10;99.90;;;;;;4991936;28;20053;-59
2023/10/27 04:26:53;;;;;;;108.10;18.50;;;9.10;99.90;;;;;;4993877;28;20054;-59
2023/10/27 04:29:21;;;;;;;172.85;19.92;;;9.10;99.90;;;;;;4993564;28;20410;-59
2023/10/27 04:31:49;;;;;;;168.45;19.83;;;9.10;99.90;;;;;;4993749;28;20493;-58
2023/10/27 04:34:16;;;;;;;154.68;17.45;;;9.10;99.90;;;;;;4993644;28;20239;-57
2023/10/27 04:36:47;;;;;;;180.38;20.15;;;9.10;99.90;;;;;;4993402;28;20061;-58
2023/10/27 04:39:14;;;;;;;116.38;18.67;;;9.00;99.90;;;;;;4990078;28;20057;-58
2023/10/27 04:41:42;;;;;;;177.48;19.70;;;9.00;99.90;;;;;;4993647;28;20057;-58
2023/10/27 04:44:10;;;;;;;193.32;20.08;;;9.00;99.90;;;;;;4993017;28;20046;-58
2023/10/27 04:46:37;;;;;;;194.65;21.92;;;9.10;99.90;;;;;;4993357;28;20533;-58
2023/10/27 04:49:05;;;;;;;167.63;19.30;;;9.00;99.90;;;;;;4983411;28;20061;-57
2023/10/27 04:51:33;;;;;;;176.70;21.20;;;9.00;99.90;;;;;;4990039;28;20057;-57
2023/10/27 04:54:00;;;;;;;120.25;16.55;;;9.00;99.90;;;;;;4989776;28;20076;-57
2023/10/27 04:56:30;;;;;;;166.93;19.40;;;9.00;99.90;;;;;;4989927;28;20054;-58
2023/10/27 04:58:58;;;;;;;149.70;17.88;;;9.00;99.90;;;;;;4988486;28;20403;-59
2023/10/27 05:01:26;;;;;;;208.85;20.92;;;9.00;99.90;;;;;;4989119;28;20049;-58
2023/10/27 05:03:56;;;;;;;154.88;18.95;;;9.00;99.90;;;;;;4980125;28;20046;-58
2023/10/27 05:06:24;;;;;;;198.88;21.48;;;9.00;99.90;;;;;;4985862;28;20047;-59
2023/10/27 05:08:52;;;;;;;218.30;20.70;;;9.00;99.90;;;;;;4984808;28;20053;-58
2023/10/27 05:11:20;;;;;;;185.90;20.20;;;9.00;99.90;;;;;;4986061;28;20514;-58
2023/10/27 05:13:48;;;;;;;202.60;19.88;;;9.00;99.90;;;;;;4985858;28;20050;-57
2023/10/27 05:16:15;;;;;;;152.18;19.33;;;9.00;99.90;;;;;;4986067;28;20050;-56
2023/10/27 05:18:43;;;;;;;226.55;21.27;;;9.00;99.90;;;;;;4984006;28;20064;-57
2023/10/27 05:21:16;;;;;;;183.85;20.70;;;9.00;99.90;;;;;;4986275;28;20054;-57
2023/10/27 05:23:44;;;;;;;166.73;19.27;;;9.00;99.90;;;;;;4986272;28;20054;-57
2023/10/27 05:26:11;;;;;;;189.15;18.38;;;8.90;99.90;;;;;;4987294;28;20046;-57
2023/10/27 05:28:39;;;;;;;134.38;16.95;;;8.90;99.90;;;;;;4988698;28;20059;-57
2023/10/27 05:31:07;;;;;;;189.73;20.80;;;8.90;99.90;;;;;;4988051;28;20410;-56
2023/10/27 05:33:34;;;;;;;145.65;19.55;;;8.90;99.90;;;;;;4974122;28;20066;-56
2023/10/27 05:36:03;;;;;;;163.93;19.70;;;8.90;99.90;;;;;;4975618;28;20058;-57
2023/10/27 05:38:31;;;;;;;199.45;22.23;;;8.80;99.90;;;;;;4984118;28;20065;-57
2023/10/27 05:40:58;;;;;;;121.85;16.05;;;8.80;99.90;;;;;;4985732;28;20049;-58
2023/10/27 05:43:26;;;;;;;135.93;18.65;;;8.80;99.90;;;;;;4988826;28;20054;-58
2023/10/27 05:45:54;;;;;;;133.10;18.60;;;8.80;99.90;;;;;;4985597;28;20061;-59
2023/10/27 05:48:24;;;;;;;148.60;19.10;;;8.80;99.90;;;;;;4986426;28;20057;-57
2023/10/27 05:50:52;;;;;;;138.02;19.58;;;8.80;99.90;;;;;;4987525;28;20531;-57
2023/10/27 05:53:19;;;;;;;161.75;20.70;;;8.80;99.90;;;;;;4984989;28;20410;-58
2023/10/27 05:55:47;;;;;;;149.02;19.65;;;8.90;99.90;;;;;;4985944;28;20742;-57
2023/10/27 05:58:15;;;;;;;171.60;21.55;;;8.80;99.90;;;;;;4982072;28;20047;-57
2023/10/27 06:00:42;;;;;;;147.77;18.92;;;8.80;99.90;;;;;;4968428;28;20055;-57
2023/10/27 06:03:10;;;;;;;142.10;20.23;;;8.80;99.90;;;;;;4971281;28;20050;-59
2023/10/27 06:05:38;;;;;;;145.45;19.05;;;8.80;99.90;;;;;;4985660;28;20058;-58
2023/10/27 06:08:05;;;;;;;151.55;19.73;;;8.80;99.90;;;;;;4988504;28;20415;-58
2023/10/27 06:10:33;;;;;;;130.43;18.08;;;8.80;99.90;;;;;;4988472;28;20490;-58
2023/10/27 06:13:01;;;;;;;130.90;17.38;;;8.80;99.90;;;;;;4987535;28;20236;-58
2023/10/27 06:15:29;;;;;;;129.38;16.50;;;8.80;99.90;;;;;;4984329;28;20490;-58
2023/10/27 06:17:56;;;;;;;127.75;17.45;;;8.80;99.90;;;;;;4985268;28;20042;-57
2023/10/27 06:20:24;;;;;;;120.03;16.70;;;8.80;99.90;;;;;;4988493;28;20406;-57
2023/10/27 06:22:55;;;;;;;133.40;17.42;;;8.80;99.90;;;;;;4987295;28;20046;-57
2023/10/27 06:25:25;;;;;;;152.18;17.45;;;8.80;99.90;;;;;;4986973;28;20050;-57
2023/10/27 06:27:54;;;;;;;129.50;15.98;;;8.80;99.90;;;;;;4985199;28;20410;-57
2023/10/27 06:30:23;;;;;;;144.45;18.58;;;8.80;99.90;;;;;;4985295;28;20055;-57
2023/10/27 06:32:50;;;;;;;119.18;17.33;;;8.80;99.90;;;;;;4985554;28;20034;-57
2023/10/27 06:35:18;;;;;;;125.57;16.23;;;8.80;99.90;;;;;;4985578;28;20046;-57
2023/10/27 06:37:45;;;;;;;133.38;16.98;;;8.80;99.90;;;;;;4980553;28;20054;-56
2023/10/27 06:40:13;;;;;;;125.18;16.70;;;8.80;99.90;;;;;;4967616;28;20061;-56
2023/10/27 06:42:41;;;;;;;120.28;16.95;;;8.80;99.90;;;;;;4975922;28;20514;-57
2023/10/27 06:45:09;;;;;;;119.20;17.80;;;8.80;99.90;;;;;;4986484;28;20421;-57
2023/10/27 06:47:40;;;;;;;115.05;16.10;;;8.70;99.90;;;;;;4979828;28;20047;-57
2023/10/27 06:50:08;;;;;;;150.95;18.05;;;8.80;99.90;;;;;;4975733;28;20047;-57
2023/10/27 06:52:36;;;;;;;151.43;16.58;;;8.80;99.90;;;;;;4987299;28;20046;-58
2023/10/27 06:55:04;;;;;;;179.95;18.25;;;8.80;99.90;;;;;;4991723;28;20056;-57
2023/10/27 06:57:32;;;;;;;137.07;16.77;;;8.80;99.90;;;;;;4976523;28;20054;-57
2023/10/27 07:00:00;;;;;;;134.55;17.30;;;8.80;99.90;;;;;;4973329;28;20055;-57
2023/10/27 07:02:28;;;;;;;149.20;17.73;;;8.80;99.90;;;;;;4972011;28;20070;-58
2023/10/27 07:05:14;;;;;;;145.80;16.48;;;8.80;99.90;;;;;;4981121;28;20051;-57
2023/10/27 07:07:43;;;;;;;147.85;17.30;;;8.80;99.90;;;;;;4975592;28;20050;-58
2023/10/27 07:10:12;;;;;;;150.48;17.23;;;8.80;99.90;;;;;;4981600;28;20050;-58
2023/10/27 07:12:39;;;;;;;164.95;18.88;;;8.80;99.90;;;;;;4970291;28;20054;-58
2023/10/27 07:15:07;;;;;;;170.45;18.02;;;8.80;99.90;;;;;;4977324;28;20058;-58
2023/10/27 07:17:37;;;;;;;132.50;19.58;;;8.80;99.90;;;;;;4987271;28;20053;-58
2023/10/27 07:20:05;;;;;;;156.38;18.27;;;8.80;99.90;;;;;;4975449;28;20046;-58
2023/10/27 07:22:36;;;;;;;143.73;19.20;;;8.80;99.90;;;;;;4978024;28;20043;-58
2023/10/27 07:25:04;;;;;;;136.80;18.20;;;8.80;99.90;;;;;;4991433;28;20053;-58
2023/10/27 07:27:33;;;;;;;159.15;17.65;;;8.80;99.90;;;;;;4990950;28;20038;-59
2023/10/27 07:30:01;;;;;;;143.55;18.35;;;8.80;99.90;;;;;;4990599;28;20394;-58
2023/10/27 07:32:28;;;;;;;171.48;18.33;;;8.80;99.90;;;;;;4990452;28;20046;-58
2023/10/27 07:34:59;;;;;;;200.38;20.38;;;8.80;99.90;;;;;;4977486;28;20407;-58
2023/10/27 07:37:27;;;;;;;141.70;18.63;;;8.80;99.90;;;;;;4973985;28;20046;-57
2023/10/27 07:39:55;;;;;;;134.27;18.42;;;8.80;99.90;;;;;;4991361;28;20050;-59
2023/10/27 07:42:23;;;;;;;132.52;17.13;;;8.80;99.90;;;;;;4990140;28;20058;-58
2023/10/27 07:44:50;;;;;;;125.15;18.90;;;8.80;99.90;;;;;;4987325;28;20054;-58
2023/10/27 07:47:18;;;;;;;111.57;16.25;;;8.90;99.90;;;;;;4979274;28;20491;-58
2023/10/27 07:49:46;;;;;;;164.85;19.45;;;8.90;99.90;;;;;;4979123;28;20055;-58
2023/10/27 07:52:13;;;;;;;147.63;17.75;;;8.90;99.90;;;;;;4974699;28;20046;-58
2023/10/27 07:54:41;;;;;;;161.07;19.05;;;8.90;99.90;;;;;;4991147;28;20050;-59
2023/10/27 07:57:09;;;;;;;121.80;16.52;;;8.90;99.90;;;;;;4990736;28;20038;-57
2023/10/27 07:59:37;;;;;;;122.10;16.33;;;9.00;99.90;;;;;;4989633;28;20042;-58
2023/10/27 08:02:05;;;;;;;100.57;15.23;;;8.90;99.90;;;;;;4979525;28;20049;-58
2023/10/27 08:04:34;;;;;;;103.40;15.48;;;9.00;99.90;;;;;;4981581;28;20039;-58
2023/10/27 08:07:03;;;;;;;107.53;15.70;;;9.00;99.90;;;;;;4976269;28;20046;-58
2023/10/27 08:09:31;;;;;;;92.68;15.23;;;9.00;99.90;;;;;;4988885;28;20402;-58
2023/10/27 08:11:59;;;;;;;77.30;13.55;;;9.00;99.90;;;;;;4983897;28;20050;-58
2023/10/27 08:14:27;;;;;;;102.65;16.05;;;9.00;99.90;;;;;;4990732;28;20050;-59
2023/10/27 08:16:55;;;;;;;114.88;15.85;;;9.10;99.90;;;;;;4977021;28;20043;-58
2023/10/27 08:19:22;;;;;;;91.40;14.65;;;9.10;99.90;;;;;;4987060;28;20053;-60
2023/10/27 08:21:50;;;;;;;88.13;14.13;;;9.10;99.90;;;;;;4990513;28;20042;-58
2023/10/27 08:24:18;;;;;;;71.90;13.10;;;9.10;99.90;;;;;;4971152;28;20058;-57
2023/10/27 08:26:45;;;;;;;68.57;13.98;;;9.10;99.90;;;;;;4971347;28;20058;-59
2023/10/27 08:29:13;;;;;;;72.53;13.25;;;9.10;99.90;;;;;;4986454;28;20058;-58
2023/10/27 08:31:41;;;;;;;82.35;14.60;;;9.10;99.90;;;;;;4985313;28;20046;-59
2023/10/27 08:34:11;;;;;;;83.25;14.45;;;9.20;99.90;;;;;;4985902;28;20402;-63
2023/10/27 08:36:39;;;;;;;102.82;14.38;;;9.20;99.90;;;;;;4990861;28;20046;-60
2023/10/27 08:39:07;;;;;;;118.35;14.95;;;9.20;99.90;;;;;;4987978;28;20057;-59
2023/10/27 08:41:36;;;;;;;133.27;16.85;;;9.20;99.90;;;;;;4988219;28;20034;-58
2023/10/27 08:44:07;;;;;;;133.32;15.95;;;9.20;99.90;;;;;;4989198;28;20487;-58
2023/10/27 08:46:53;;;;;;;107.25;17.23;;;9.20;99.90;;;;;;4982878;28;20411;-57
2023/10/27 08:49:21;;;;;;;136.98;16.42;;;9.30;99.90;;;;;;4986579;28;20050;-57
2023/10/27 08:51:49;;;;;;;114.18;16.15;;;9.40;99.90;;;;;;4987937;28;20035;-57
2023/10/27 08:54:17;;;;;;;130.30;18.00;;;9.40;99.90;;;;;;4978700;28;20074;-57
2023/10/27 08:56:45;;;;;;;114.15;16.95;;;9.40;99.90;;;;;;4990118;28;20054;-57
2023/10/27 08:59:14;;;;;;;123.47;16.95;;;9.50;99.90;;;;;;4989489;28;20054;-57
2023/10/27 09:01:43;;;;;;;136.50;16.55;;;9.50;99.90;;;;;;4986543;28;20514;-57
2023/10/27 09:04:12;;;;;;;136.30;17.65;;;9.50;99.90;;;;;;4987084;28;20050;-57
2023/10/27 09:06:42;;;;;;;124.00;17.55;;;9.60;99.90;;;;;;4970484;28;20483;-58
2023/10/27 09:09:09;;;;;;;139.77;16.63;;;9.60;99.90;;;;;;4980972;28;20050;-57
2023/10/27 09:11:41;;;;;;;137.00;18.15;;;9.70;99.90;;;;;;4976573;28;20061;-58
2023/10/27 09:14:28;;;;;;;119.60;18.17;;;9.70;99.90;;;;;;4989647;28;20050;-56
2023/10/27 09:17:11;;;;;;;140.30;18.58;;;9.70;99.90;;;;;;4988966;28;20042;-57
2023/10/27 09:19:39;;;;;;;145.07;19.67;;;9.70;99.90;;;;;;4983518;28;20047;-57
2023/10/27 09:22:19;;;;;;;109.25;17.45;;;9.70;99.90;;;;;;4971624;28;20047;-58
2023/10/27 09:24:51;;;;;;;110.13;18.00;;;9.60;99.90;;;;;;4989439;28;20521;-58
2023/10/27 09:27:27;;;;;;;77.13;16.48;;;9.70;99.90;;;;;;4989162;28;20358;-58
2023/10/27 09:29:54;;;;;;;87.18;15.57;;;9.70;99.90;;;;;;4988166;28;20449;-58
2023/10/27 09:32:26;;;;;;;75.75;13.70;;;9.70;99.90;;;;;;4987891;28;20648;-58
2023/10/27 09:35:13;;;;;;;65.10;13.80;;;9.70;99.90;;;;;;4981452;28;20046;-57
2023/10/27 09:37:41;;;;;;;67.20;14.48;;;9.70;99.90;;;;;;4973244;28;20053;-57
2023/10/27 09:40:11;;;;;;;65.40;15.07;;;9.80;99.90;;;;;;4988576;28;20046;-57
2023/10/27 09:42:40;;;;;;;68.55;14.02;;;9.80;99.90;;;;;;4988962;28;20053;-58
2023/10/27 09:45:11;;;;;;;69.00;14.02;;;9.80;99.90;;;;;;4987391;28;20061;-58
2023/10/27 09:47:47;;;;;;;73.07;13.95;;;9.80;99.90;;;;;;4986486;28;20061;-58
2023/10/27 09:50:26;;;;;;;81.90;15.77;;;9.90;99.90;;;;;;4970164;28;20387;-58
2023/10/27 09:52:58;;;;;;;80.18;16.77;;;9.90;99.90;;;;;;4985244;28;20073;-58
2023/10/27 09:55:33;;;;;;;83.75;16.05;;;9.90;99.90;;;;;;4988906;28;20062;-58
2023/10/27 09:58:02;;;;;;;75.40;15.00;;;9.90;99.90;;;;;;4988713;28;20048;-59
2023/10/27 10:00:31;;;;;;;65.45;15.32;;;10.00;99.90;;;;;;4988868;28;20061;-58
2023/10/27 10:03:01;;;;;;;59.83;14.38;;;10.00;99.90;;;;;;4987209;28;20049;-58
2023/10/27 10:05:49;;;;;;;60.80;14.77;;;10.00;99.90;;;;;;4979571;28;20515;-57
2023/10/27 10:08:18;;;;;;;55.30;14.23;;;9.90;99.90;;;;;;4977081;28;20053;-57
2023/10/27 10:10:46;;;;;;;45.75;12.90;;;9.90;99.90;;;;;;4982017;28;20057;-58
2023/10/27 10:13:16;;;;;;;51.03;12.93;;;10.00;99.90;;;;;;4979694;28;20054;-58
2023/10/27 10:15:45;;;;;;;60.33;14.40;;;10.00;99.90;;;;;;4988043;28;20054;-57
2023/10/27 10:18:25;;;;;;;52.28;14.25;;;10.00;99.90;;;;;;4984214;28;20296;-58
2023/10/27 10:20:56;;;;;;;;;;;10.00;99.90;;;;;;4969551;28;20047;-57
2023/10/27 10:23:47;;;;;;;52.65;12.82;;;10.00;99.90;;;;;;4976492;28;19930;-58
2023/10/27 10:26:15;;;;;;;54.63;13.75;;;10.00;99.90;;;;;;4979887;28;20046;-56
2023/10/27 10:28:46;;;;;;;50.15;15.07;;;10.00;99.90;;;;;;4979390;28;20077;-58
2023/10/27 10:31:14;;;;;;;51.85;14.00;;;10.00;99.90;;;;;;4981726;28;20062;-58
2023/10/27 10:33:44;;;;;;;50.13;15.27;;;10.00;99.90;;;;;;4973351;28;20063;-58
2023/10/27 10:36:18;;;;;;;49.50;14.43;;;10.00;99.90;;;;;;4986975;28;20067;-58
2023/10/27 10:38:58;;;;;;;46.15;14.35;;;10.10;99.90;;;;;;4973271;28;20047;-58
2023/10/27 10:41:41;;;;;;;;;;;10.10;99.90;;;;;;4983840;28;20499;-59
2023/10/27 10:44:13;;;;;;;34.60;11.82;;;10.10;99.90;;;;;;4969546;28;19922;-59
2023/10/27 10:46:43;;;;;;;34.28;11.75;;;10.10;99.90;;;;;;4978956;28;20479;-58
2023/10/27 10:49:24;;;;;;;34.95;11.73;;;10.20;99.90;;;;;;4978230;28;20418;-58
2023/10/27 10:51:54;;;;;;;33.50;11.30;;;10.20;99.90;;;;;;4968874;28;20043;-59
2023/10/27 10:54:32;;;;;;;36.38;11.95;;;10.20;99.90;;;;;;4985471;28;20046;-59
2023/10/27 10:57:11;;;;;;;25.42;10.98;;;10.20;99.90;;;;;;4984311;28;20398;-59
2023/10/27 10:59:53;;;;;;;32.42;11.32;;;10.30;99.90;;;;;;4988193;28;20046;-58
2023/10/27 11:02:21;;;;;;;27.27;9.95;;;10.30;99.90;;;;;;4971012;28;20042;-59
2023/10/27 11:04:49;;;;;;;19.75;8.80;;;10.40;99.90;;;;;;4980608;28;20410;-59
2023/10/27 11:07:18;;;;;;;22.25;9.00;;;10.40;99.90;;;;;;4981422;28;20046;-57
2023/10/27 11:09:46;;;;;;;26.40;9.15;;;10.50;99.90;;;;;;4978179;28;20506;-59
2023/10/27 11:12:25;;;;;;;21.67;8.35;;;10.50;99.90;;;;;;4982569;28;20054;-59
2023/10/27 11:14:53;;;;;;;;;;;10.60;99.90;;;;;;4981093;28;20058;-58
2023/10/27 11:17:21;;;;;;;21.50;8.77;;;10.70;99.90;;;;;;4982777;28;20297;-59
2023/10/27 11:19:53;;;;;;;21.02;8.43;;;10.70;99.90;;;;;;4969611;28;20230;-58
2023/10/27 11:22:25;;;;;;;16.15;7.28;;;10.70;99.90;;;;;;4975170;28;20479;-58
2023/10/27 11:24:53;;;;;;;18.27;7.07;;;10.80;99.90;;;;;;4981571;28;20054;-59
2023/10/27 11:27:26;;;;;;;16.00;8.15;;;10.80;99.90;;;;;;4967725;28;20494;-58
2023/10/27 11:30:01;;;;;;;15.18;7.68;;;10.80;99.90;;;;;;4983568;28;20065;-57
2023/10/27 11:32:28;;;;;;;15.65;7.18;;;10.80;99.90;;;;;;4968429;28;20055;-58
2023/10/27 11:34:57;;;;;;;19.95;6.55;;;10.90;99.90;;;;;;4978042;28;20402;-57
2023/10/27 11:37:26;;;;;;;19.98;6.38;;;10.90;99.90;;;;;;4990111;28;20065;-57
2023/10/27 11:39:57;;;;;;;15.57;6.80;;;10.90;99.90;;;;;;4980509;28;20054;-57
2023/10/27 11:42:24;;;;;;;16.98;6.75;;;10.90;99.90;;;;;;4983374;28;20050;-58
2023/10/27 11:44:52;;;;;;;21.58;7.13;;;10.90;99.90;;;;;;4981623;28;20042;-58
2023/10/27 11:47:20;;;;;;;16.40;7.35;;;10.90;99.90;;;;;;4983974;28;20046;-58
2023/10/27 11:49:47;;;;;;;13.65;7.15;;;10.90;99.90;;;;;;4978936;28;20047;-58
2023/10/27 11:52:19;;;;;;;22.92;7.45;;;10.90;99.90;;;;;;4976604;28;20047;-58
2023/10/27 11:54:47;;;;;;;20.08;7.85;;;10.90;99.90;;;;;;4978337;28;20039;-58
2023/10/27 11:57:15;;;;;;;22.05;7.30;;;11.00;99.90;;;;;;4980527;28;20055;-58
2023/10/27 11:59:43;;;;;;;19.33;7.53;;;11.10;99.90;;;;;;4985306;28;20043;-58
2023/10/27 12:02:10;;;;;;;25.85;7.20;;;11.10;99.90;;;;;;4977600;28;20054;-58
2023/10/27 12:04:38;;;;;;;17.52;6.75;;;11.10;99.90;;;;;;4978151;28;20054;-58
2023/10/27 12:07:06;;;;;;;18.75;7.63;;;11.10;99.90;;;;;;4976510;28;20058;-59
2023/10/27 12:09:33;;;;;;;21.90;8.32;;;11.20;99.90;;;;;;4975094;28;20043;-58
2023/10/27 12:12:01;;;;;;;18.40;7.55;;;11.30;99.90;;;;;;4986663;28;20050;-57
2023/10/27 12:14:29;;;;;;;19.70;7.50;;;11.30;99.90;;;;;;4971458;28;20443;-58
2023/10/27 12:16:56;;;;;;;25.80;7.75;;;11.40;99.90;;;;;;4971784;28;20047;-58
2023/10/27 12:19:24;;;;;;;20.13;7.25;;;11.50;99.90;;;;;;4987930;28;20050;-59
2023/10/27 12:21:53;;;;;;;16.38;7.85;;;11.60;99.90;;;;;;4989649;28;20050;-59
2023/10/27 12:24:20;;;;;;;15.90;6.72;;;11.60;99.90;;;;;;4989678;28;20049;-59
2023/10/27 12:26:48;;;;;;;16.23;6.85;;;11.60;99.90;;;;;;4973079;28;20376;-58
2023/10/27 12:29:16;;;;;;;20.65;6.45;;;11.70;99.90;;;;;;4988126;28;20050;-59
2023/10/27 12:31:43;;;;;;;18.65;6.65;;;11.70;99.90;;;;;;4977368;28;20042;-58
2023/10/27 12:34:11;;;;;;;15.63;6.13;;;11.60;99.90;;;;;;4975214;28;20132;-59
2023/10/27 12:36:40;;;;;;;17.55;6.80;;;11.60;99.90;;;;;;4976902;28;20669;-58
2023/10/27 12:39:07;;;;;;;23.20;6.50;;;11.50;99.90;;;;;;4982609;28;20385;-58
2023/10/27 12:41:36;;;;;;;16.95;6.07;;;11.50;99.90;;;;;;4976890;28;20062;-58